Time;durP1;ratioP1;P1;durP2;ratioP2;P2;SDS_P1;SDS_P2;PMS_P1;PMS_P2;Temp;Humidity;BMP_temperature;BMP_pressure;BME280_temperature;BME280_humidity;BME280_pressure;Samples;Min_cycle;Max_cycle;Signal;HPM_P1;HPM_P2
2022/06/23 00:01:20;;;;;;;;;;;14.30;99.90;;;;;;5046921;28;19928;-80
2022/06/23 00:03:48;;;;;;;;;;;14.40;99.90;;;;;;5029302;28;19986;-80
2022/06/23 00:06:26;;;;;;;;;;;14.30;99.90;;;;;;5026255;28;20037;-81
2022/06/23 00:08:51;;;;;;;;;;;14.30;99.90;;;;;;5011114;28;20146;-80
2022/06/23 00:11:23;;;;;;;;;;;14.30;99.90;;;;;;5013208;28;20144;-80
2022/06/23 00:13:49;;;;;;;;;;;14.30;99.90;;;;;;5065277;22;20687;-80
2022/06/23 00:16:22;;;;;;;;;;;14.10;99.90;;;;;;5030845;28;20508;-80
2022/06/23 00:18:47;;;;;;;;;;;14.20;99.90;;;;;;5053195;28;20009;-80
2022/06/23 00:21:16;;;;;;;;;;;14.20;99.90;;;;;;5023599;28;20341;-80
2022/06/23 00:23:44;;;;;;;;;;;14.10;99.90;;;;;;5010196;28;19928;-80
2022/06/23 00:26:12;;;;;;;;;;;14.20;99.90;;;;;;5025152;28;19982;-80
2022/06/23 00:28:53;;;;;;;;;;;14.30;99.90;;;;;;5031974;28;19929;-80
2022/06/23 00:31:34;;;;;;;;;;;14.30;99.90;;;;;;5053179;28;20262;-80
2022/06/23 00:34:01;;;;;;;;;;;14.20;99.90;;;;;;5034787;28;19928;-80
2022/06/23 00:36:59;;;;;;;;;;;14.20;99.90;;;;;;5012425;28;19959;-80
2022/06/23 00:39:31;;;;;;;;;;;14.20;99.90;;;;;;4958228;28;19967;-80
2022/06/23 00:41:58;;;;;;;;;;;14.10;99.90;;;;;;5005718;28;19932;-80
2022/06/23 00:44:26;;;;;;;;;;;14.10;99.90;;;;;;5017650;28;19932;-80
2022/06/23 00:46:55;;;;;;;;;;;14.00;99.90;;;;;;5022700;28;19928;-80
2022/06/23 00:49:30;;;;;;;;;;;14.00;99.90;;;;;;5028602;28;19932;-80
2022/06/23 00:51:59;;;;;;;;;;;14.10;99.90;;;;;;5029907;28;19928;-80
2022/06/23 00:54:28;;;;;;;;;;;13.90;99.90;;;;;;5033173;28;19939;-79
2022/06/23 00:57:05;;;;;;;;;;;14.00;99.90;;;;;;5035210;28;19978;-79
2022/06/23 00:59:40;;;;;;;;;;;14.00;99.90;;;;;;5032141;28;19939;-80
2022/06/23 01:02:14;;;;;;;;;;;14.00;99.90;;;;;;5051943;28;20202;-79
2022/06/23 01:04:46;;;;;;;;;;;13.90;99.90;;;;;;5050763;28;20639;-79
2022/06/23 01:07:21;;;;;;;;;;;13.90;99.90;;;;;;5031508;28;20048;-79
2022/06/23 01:09:53;;;;;;;;;;;14.00;99.90;;;;;;5053176;28;20385;-79
2022/06/23 01:12:19;;;;;;;;;;;13.80;99.90;;;;;;5054759;28;19928;-79
2022/06/23 01:14:50;;;;;;;;;;;13.90;99.90;;;;;;5036262;28;19935;-80
2022/06/23 01:17:42;;;;;;;;;;;13.90;99.90;;;;;;5032961;28;19932;-79
2022/06/23 01:20:08;;;;;;;;;;;13.90;99.90;;;;;;5047302;28;20319;-79
2022/06/23 01:22:40;;;;;;;;;;;13.80;99.90;;;;;;5054186;28;19924;-79
2022/06/23 01:25:06;;;;;;;;;;;13.90;99.90;;;;;;5020137;28;20311;-80
2022/06/23 01:27:52;;;;;;;;;;;13.80;99.90;;;;;;5020270;28;19935;-79
2022/06/23 01:30:19;;;;;;;;;;;13.80;99.90;;;;;;5021974;28;19988;-79
2022/06/23 01:32:51;;;;;;;;;;;13.70;99.90;;;;;;5034900;28;20489;-79
2022/06/23 01:35:20;;;;;;;;;;;13.60;99.90;;;;;;5052101;28;20338;-79
2022/06/23 01:37:52;;;;;;;;;;;13.60;99.90;;;;;;5015354;28;19928;-79
2022/06/23 01:40:20;;;;;;;;;;;13.60;99.90;;;;;;5052899;28;19986;-79
2022/06/23 01:42:49;;;;;;;;;;;13.70;99.90;;;;;;5034372;28;19939;-79
2022/06/23 01:45:35;;;;;;;;;;;13.60;99.90;;;;;;5033594;28;19932;-79
2022/06/23 01:48:06;;;;;;;;;;;13.50;99.90;;;;;;5039184;28;19935;-79
2022/06/23 01:50:36;;;;;;;;;;;13.50;99.90;;;;;;5038327;28;19935;-79
2022/06/23 01:53:10;;;;;;;;;;;13.50;99.90;;;;;;5034301;28;19936;-79
2022/06/23 01:55:48;;;;;;;;;;;13.50;99.90;;;;;;5037028;28;19932;-79
2022/06/23 01:58:16;;;;;;;;;;;13.50;99.90;;;;;;5039074;28;19935;-79
2022/06/23 02:00:44;;;;;;;;;;;13.40;99.90;;;;;;5052345;28;20023;-79
2022/06/23 02:03:15;;;;;;;;;;;13.40;99.90;;;;;;5056598;28;20005;-79
2022/06/23 02:05:44;;;;;;;;;;;13.40;99.90;;;;;;5017117;28;19935;-79
2022/06/23 02:08:16;;;;;;;;;;;13.40;99.90;;;;;;5037045;28;20823;-79
2022/06/23 02:11:02;;;;;;;;;;;13.30;99.90;;;;;;5036257;28;19989;-79
2022/06/23 02:13:51;;;;;;;;;;;13.30;99.90;;;;;;5017929;28;20008;-80
2022/06/23 02:16:28;;;;;;;;;;;13.30;99.90;;;;;;5056104;28;19928;-80
2022/06/23 02:19:13;;;;;;;;;;;13.40;99.90;;;;;;5033896;28;20031;-80
2022/06/23 02:21:49;;;;;;;;;;;13.30;99.90;;;;;;5057334;28;20799;-80
2022/06/23 02:24:19;;;;;;;;;;;13.30;99.90;;;;;;5037277;28;20532;-80
2022/06/23 02:26:51;;;;;;;;;;;13.20;99.90;;;;;;5032768;28;20305;-80
2022/06/23 02:29:17;;;;;;;;;;;13.20;99.90;;;;;;5055749;28;19950;-80
2022/06/23 02:31:55;;;;;;;;;;;13.30;99.90;;;;;;5053004;28;19928;-79
2022/06/23 02:34:32;;;;;;;;;;;13.20;99.90;;;;;;5056401;28;19965;-80
2022/06/23 02:37:05;;;;;;;;;;;13.20;99.90;;;;;;5040042;28;19928;-80
2022/06/23 02:39:30;;;;;;;;;;;13.20;99.90;;;;;;5056975;28;19928;-79
2022/06/23 02:41:59;;;;;;;;;;;13.20;99.90;;;;;;5020076;28;19932;-80
2022/06/23 02:44:43;;;;;;;;;;;13.20;99.90;;;;;;5031869;28;20011;-80
2022/06/23 02:47:28;;;;;;;;;;;13.10;99.90;;;;;;5035806;28;19971;-80
2022/06/23 02:50:03;;;;;;;;;;;13.10;99.90;;;;;;5058424;28;20390;-80
2022/06/23 02:52:34;;;;;;;;;;;13.10;99.90;;;;;;5053557;28;20487;-80
2022/06/23 02:55:00;;;;;;;;;;;13.00;99.90;;;;;;5036499;28;19935;-79
2022/06/23 02:57:29;;;;;;;;;;;13.00;99.90;;;;;;5054494;28;19929;-80
2022/06/23 02:59:57;;;;;;;;;;;13.00;99.90;;;;;;5053257;28;19928;-80
2022/06/23 03:02:29;;;;;;;;;;;13.00;99.90;;;;;;5037137;28;19933;-80
2022/06/23 03:05:06;;;;;;;;;;;12.90;99.90;;;;;;5057033;28;19939;-80
2022/06/23 03:07:39;;;;;;;;;;;13.00;99.90;;;;;;5034741;28;19935;-80
2022/06/23 03:10:24;;;;;;;;;;;13.00;99.90;;;;;;5056934;28;19935;-80
2022/06/23 03:12:54;;;;;;;;;;;12.90;99.90;;;;;;5016331;28;19956;-80
2022/06/23 03:15:29;;;;;;;;;;;12.80;99.90;;;;;;5036174;28;20297;-80
2022/06/23 03:18:00;;;;;;;;;;;12.80;99.90;;;;;;5054873;28;19928;-80
2022/06/23 03:20:37;;;;;;;;;;;12.90;99.90;;;;;;5033286;28;19932;-80
2022/06/23 03:23:02;;;;;;;;;;;12.90;99.90;;;;;;5034769;28;19952;-79
2022/06/23 03:25:28;;;;;;;;;;;12.80;99.90;;;;;;5036473;28;19932;-80
2022/06/23 03:28:00;;;;;;;;;;;12.80;99.90;;;;;;5052067;28;19928;-81
2022/06/23 03:30:29;;;;;;;;;;;12.90;99.90;;;;;;5051906;28;19928;-81
2022/06/23 03:32:57;;;;;;;;;;;12.80;99.90;;;;;;5056537;28;19929;-80
2022/06/23 03:35:36;;;;;;;;;;;12.80;99.90;;;;;;5035897;28;20333;-80
2022/06/23 03:38:02;;;;;;;;;;;12.90;99.90;;;;;;5053996;28;19934;-80
2022/06/23 03:43:36;;;;;;;;;;;12.80;99.90;;;;;;5036132;28;19929;-80
2022/06/23 03:46:05;;;;;;;;;;;12.90;99.90;;;;;;5034734;28;19979;-80
2022/06/23 03:48:33;;;;;;;;;;;12.80;99.90;;;;;;5019804;28;20010;-80
2022/06/23 03:50:58;;;;;;;;;;;12.80;99.90;;;;;;5034578;28;20066;-80
2022/06/23 03:53:30;;;;;;;;;;;12.80;99.90;;;;;;5039342;28;20756;-80
2022/06/23 03:56:01;;;;;;;;;;;12.90;99.90;;;;;;5035613;28;19928;-80
2022/06/23 03:58:27;;;;;;;;;;;12.90;99.90;;;;;;5031505;28;19993;-80
2022/06/23 04:00:58;;;;;;;;;;;12.80;99.90;;;;;;5035826;28;19993;-81
2022/06/23 04:03:27;;;;;;;;;;;13.00;99.90;;;;;;5041566;28;19928;-81
2022/06/23 04:05:56;;;;;;;;;;;13.00;99.90;;;;;;5056155;28;19928;-80
2022/06/23 04:08:23;;;;;;;;;;;13.00;99.90;;;;;;5034436;28;19951;-80
2022/06/23 04:10:50;;;;;;;;;;;13.00;99.90;;;;;;5018235;28;20448;-81
2022/06/23 04:13:19;;;;;;;;;;;13.10;99.90;;;;;;5034535;28;20267;-81
2022/06/23 04:15:49;;;;;;;;;;;13.20;99.90;;;;;;5029705;28;19935;-81
2022/06/23 04:18:25;;;;;;;;;;;13.20;99.90;;;;;;5032036;28;20031;-81
2022/06/23 04:20:53;;;;;;;;;;;13.30;99.90;;;;;;5035786;28;19933;-80
2022/06/23 04:23:22;;;;;;;;;;;13.30;99.90;;;;;;5030419;28;19981;-80
2022/06/23 04:26:01;;;;;;;;;;;13.30;99.90;;;;;;5031071;28;19936;-82
2022/06/23 04:28:29;;;;;;;;;;;13.50;99.90;;;;;;5035634;28;20019;-81
2022/06/23 04:30:56;;;;;;;;;;;13.50;99.90;;;;;;5039296;28;20019;-81
2022/06/23 04:33:23;;;;;;;;;;;13.60;99.90;;;;;;5031744;28;19975;-79
2022/06/23 04:35:51;;;;;;;;;;;13.70;99.90;;;;;;5028179;28;19935;-81
2022/06/23 04:38:21;;;;;;;;;;;13.70;99.90;;;;;;5018961;28;20605;-81
2022/06/23 04:40:50;;;;;;;;;;;13.90;99.90;;;;;;5014444;28;20401;-81
2022/06/23 04:43:48;;;;;;;;;;;14.20;99.90;;;;;;5012238;28;19933;-80
2022/06/23 04:46:34;;;;;;;;;;;16.20;99.90;;;;;;4988983;28;19933;-81
2022/06/23 04:49:02;;;;;;;;;;;17.40;99.90;;;;;;5010862;28;19929;-81
2022/06/23 04:51:39;;;;;;;;;;;17.80;99.90;;;;;;5011448;28;19933;-81
2022/06/23 04:54:04;;;;;;;;;;;18.80;99.90;;;;;;5011919;28;19929;-81
2022/06/23 04:56:30;;;;;;;;;;;19.80;99.90;;;;;;5017965;28;20480;-81
2022/06/23 04:58:59;;;;;;;;;;;20.80;99.90;;;;;;5007570;28;19933;-81
2022/06/23 05:01:33;;;;;;;;;;;20.10;99.90;;;;;;5011615;28;19940;-82
2022/06/23 05:04:00;;;;;;;;;;;20.70;99.90;;;;;;5014236;28;20054;-81
2022/06/23 05:06:28;;;;;;;;;;;21.70;99.90;;;;;;5023674;28;19963;-81
2022/06/23 05:08:58;;;;;;;;;;;20.50;99.90;;;;;;5030488;28;19929;-81
2022/06/23 05:11:28;;;;;;;;;;;20.70;99.90;;;;;;5032437;28;19990;-81
2022/06/23 05:13:58;;;;;;;;;;;22.50;99.90;;;;;;4987684;28;20830;-82
2022/06/23 05:16:47;;;;;;;;;;;22.00;99.90;;;;;;5027605;28;20016;-81
2022/06/23 05:19:18;;;;;;;;;;;22.10;99.90;;;;;;5029078;28;19951;-81
2022/06/23 05:21:50;;;;;;;;;;;21.70;99.90;;;;;;5032138;28;19939;-81
2022/06/23 05:24:18;;;;;;;;;;;22.30;99.90;;;;;;5035415;28;20055;-82
2022/06/23 05:26:48;;;;;;;;;;;24.10;99.90;;;;;;5039186;28;20650;-82
2022/06/23 05:29:20;;;;;;;;;;;22.20;99.90;;;;;;5037393;28;19928;-81
2022/06/23 05:31:49;;;;;;;;;;;21.80;99.90;;;;;;5020890;28;19976;-81
2022/06/23 05:34:25;;;;;;;;;;;22.20;99.90;;;;;;5045177;28;19952;-82
2022/06/23 05:37:12;;;;;;;;;;;23.50;99.90;;;;;;5039735;28;19972;-81
2022/06/23 05:40:07;;;;;;;;;;;22.70;99.90;;;;;;5023168;28;19932;-82
2022/06/23 05:42:33;;;;;;;;;;;22.60;99.90;;;;;;5014967;28;19929;-81
2022/06/23 05:45:02;;;;;;;;;;;21.50;99.90;;;;;;5036394;28;20510;-81
2022/06/23 05:47:30;;;;;;;;;;;21.10;99.90;;;;;;5037267;28;20507;-81
2022/06/23 05:49:57;;;;;;;;;;;20.20;99.90;;;;;;5039870;28;19932;-82
2022/06/23 05:52:33;;;;;;;;;;;19.80;99.90;;;;;;5035293;28;20306;-81
2022/06/23 05:55:02;;;;;;;;;;;19.60;99.90;;;;;;5024816;28;19933;-82
2022/06/23 05:57:57;;;;;;;;;;;19.60;99.90;;;;;;5038308;28;19936;-82
2022/06/23 06:00:38;;;;;;;;;;;20.20;99.90;;;;;;5001672;28;19940;-82
2022/06/23 06:03:16;;;;;;;;;;;19.80;99.90;;;;;;5035657;28;19929;-81
2022/06/23 06:05:44;;;;;;;;;;;19.60;99.90;;;;;;5039452;28;20023;-82
2022/06/23 06:08:23;;;;;;;;;;;19.60;99.90;;;;;;5034377;28;20509;-81
2022/06/23 06:10:49;;;;;;;;;;;20.70;99.90;;;;;;5035548;28;20282;-81
2022/06/23 06:13:21;;;;;;;;;;;20.00;99.90;;;;;;5041000;28;20747;-81
2022/06/23 06:15:49;;;;;;;;;;;20.50;99.90;;;;;;5021339;28;19929;-81
2022/06/23 06:18:14;;;;;;;;;;;20.60;99.90;;;;;;5023871;28;20357;-82
2022/06/23 06:20:40;;;;;;;;;;;22.00;99.90;;;;;;5023188;28;19929;-81
2022/06/23 06:23:08;;;;;;;;;;;22.40;99.90;;;;;;5023566;28;20034;-81
2022/06/23 06:25:37;;;;;;;;;;;22.50;99.90;;;;;;5016524;28;19986;-82
2022/06/23 06:28:19;;;;;;;;;;;22.00;99.90;;;;;;5020692;28;19947;-81
2022/06/23 06:30:54;;;;;;;;;;;20.70;99.90;;;;;;5021919;28;19929;-81
2022/06/23 06:33:38;;;;;;;;;;;20.90;99.90;;;;;;5024891;28;20039;-81
2022/06/23 06:36:20;;;;;;;;;;;20.90;99.90;;;;;;5017551;28;19929;-81
2022/06/23 06:38:46;;;;;;;;;;;20.30;99.90;;;;;;5019759;28;19929;-81
2022/06/23 06:41:12;;;;;;;;;;;20.40;99.90;;;;;;5006431;28;19998;-81
2022/06/23 06:43:37;;;;;;;;;;;20.20;99.90;;;;;;5007506;28;19929;-79
2022/06/23 06:46:03;;;;;;;;;;;20.40;99.90;;;;;;5006876;28;20290;-81
2022/06/23 06:48:35;;;;;;;;;;;20.70;99.90;;;;;;4995316;28;19925;-81
2022/06/23 06:51:05;;;;;;;;;;;21.70;99.90;;;;;;5004488;28;19982;-80
2022/06/23 06:53:34;;;;;;;;;;;21.20;99.90;;;;;;5002689;28;19936;-81
2022/06/23 06:56:23;;;;;;;;;;;21.00;99.90;;;;;;4998891;28;19929;-81
2022/06/23 06:58:52;;;;;;;;;;;21.00;99.90;;;;;;5010403;28;19929;-81
2022/06/23 07:01:20;;;;;;;;;;;20.90;99.90;;;;;;5034687;28;20778;-81
2022/06/23 07:03:47;;;;;;;;;;;20.80;99.90;;;;;;5003329;28;19979;-82
2022/06/23 07:06:27;;;;;;;;;;;21.10;99.90;;;;;;5017065;28;19999;-83
2022/06/23 07:09:00;;;;;;;;;;;22.10;99.90;;;;;;5022316;28;20011;-81
2022/06/23 07:11:36;;;;;;;;;;;21.80;99.90;;;;;;5016908;28;19929;-80
2022/06/23 07:14:02;;;;;;;;;;;21.90;99.90;;;;;;5027794;28;19994;-80
2022/06/23 07:16:37;;;;;;;;;;;22.00;99.90;;;;;;5044274;28;20016;-82
2022/06/23 07:19:21;;;;;;;;;;;22.30;99.90;;;;;;5040060;28;19977;-80
2022/06/23 07:21:51;;;;;;;;;;;22.60;99.90;;;;;;5043372;28;19975;-81
2022/06/23 07:24:23;;;;;;;;;;;23.40;99.90;;;;;;5041125;28;20624;-81
2022/06/23 07:26:58;;;;;;;;;;;23.10;99.90;;;;;;5040117;28;20035;-80
2022/06/23 07:29:39;;;;;;;;;;;22.80;99.90;;;;;;5062350;28;19928;-81
2022/06/23 07:32:04;;;;;;;;;;;23.30;99.90;;;;;;5062033;28;19927;-81
2022/06/23 07:34:36;;;;;;;;;;;23.80;99.90;;;;;;5025525;28;19928;-81
2022/06/23 07:37:07;;;;;;;;;;;22.80;99.90;;;;;;5036678;28;20022;-82
2022/06/23 07:39:35;;;;;;;;;;;23.60;99.90;;;;;;5026246;28;19953;-82
2022/06/23 07:42:09;;;;;;;;;;;24.30;99.90;;;;;;5044735;28;19936;-81
2022/06/23 07:44:50;;;;;;;;;;;24.50;99.90;;;;;;5039271;28;20633;-81
2022/06/23 07:47:17;;;;;;;;;;;24.00;99.90;;;;;;5042566;28;20367;-81
2022/06/23 07:49:42;;;;;;;;;;;23.50;99.90;;;;;;5062808;28;19928;-81
2022/06/23 07:52:11;;;;;;;;;;;23.70;99.90;;;;;;5042544;28;19938;-81
2022/06/23 07:54:36;;;;;;;;;;;24.30;99.90;;;;;;5036316;28;19932;-83
2022/06/23 07:57:03;;;;;;;;;;;24.30;99.90;;;;;;5044635;28;19963;-81
2022/06/23 07:59:58;;;;;;;;;;;23.90;99.90;;;;;;5064884;28;20365;-81
2022/06/23 08:02:23;;;;;;;;;;;23.70;99.90;;;;;;5023458;28;20463;-81
2022/06/23 08:04:55;;;;;;;;;;;23.60;99.90;;;;;;5051593;28;19928;-81
2022/06/23 08:07:22;;;;;;;;;;;23.90;99.90;;;;;;5055445;28;20104;-81
2022/06/23 08:09:53;;;;;;;;;;;24.60;99.90;;;;;;5047453;28;20358;-81
2022/06/23 08:17:57;;;;;;;;;;;23.90;99.90;;;;;;5039695;28;20305;-81
2022/06/23 08:20:24;;;;;;;;;;;24.20;99.90;;;;;;5035391;28;20650;-81
2022/06/23 08:22:52;;;;;;;;;;;24.30;99.90;;;;;;5064210;28;19986;-80
2022/06/23 08:25:18;;;;;;;;;;;24.60;99.90;;;;;;5035651;28;20037;-81
2022/06/23 08:27:44;;;;;;;;;;;24.60;99.90;;;;;;5034139;28;20014;-81
2022/06/23 08:30:15;;;;;;;;;;;25.70;99.90;;;;;;5041574;28;20439;-81
2022/06/23 08:32:44;;;;;;;;;;;25.80;99.90;;;;;;5040061;28;19980;-81
2022/06/23 08:35:14;;;;;;;;;;;25.40;99.90;;;;;;5038479;28;19932;-83
2022/06/23 08:37:46;;;;;;;;;;;25.60;99.90;;;;;;5053435;28;19928;-82
2022/06/23 08:40:31;;;;;;;;;;;25.90;99.90;;;;;;5057718;28;19933;-81
2022/06/23 08:43:00;;;;;;;;;;;25.70;99.90;;;;;;5056663;28;19987;-82
2022/06/23 08:45:39;;;;;;;;;;;25.90;99.90;;;;;;5039115;28;19928;-82
2022/06/23 08:48:07;;;;;;;;;;;25.70;99.90;;;;;;5037569;28;19928;-82
2022/06/23 08:50:45;;;;;;;;;;;25.70;99.90;;;;;;5041887;28;20300;-82
2022/06/23 08:53:17;;;;;;;;;;;26.50;99.90;;;;;;5024663;28;20124;-81
2022/06/23 08:56:03;;;;;;;;;;;26.20;99.90;;;;;;5048597;28;19928;-83
2022/06/23 08:58:46;;;;;;;;;;;25.80;99.90;;;;;;5045941;28;20023;-81
2022/06/23 09:01:15;;;;;;;;;;;26.40;99.90;;;;;;5042334;28;20602;-82
2022/06/23 09:03:51;;;;;;;;;;;27.20;99.90;;;;;;5048230;28;19981;-81
2022/06/23 09:06:23;;;;;;;;;;;26.90;99.90;;;;;;5066531;28;19939;-82
2022/06/23 09:09:02;;;;;;;;;;;25.70;99.90;;;;;;5040912;28;20343;-81
2022/06/23 09:11:51;;;;;;;;;;;25.70;99.90;;;;;;5058074;28;20359;-82
2022/06/23 09:14:25;;;;;;;;;;;26.10;99.90;;;;;;5066388;28;20466;-82
2022/06/23 09:17:14;;;;;;;;;;;25.90;99.90;;;;;;5044699;28;19935;-81
2022/06/23 09:19:43;;;;;;;;;;;26.30;99.90;;;;;;5027547;28;19963;-82
2022/06/23 09:22:12;;;;;;;;;;;26.70;99.90;;;;;;5047055;28;19935;-81
2022/06/23 09:24:46;;;;;;;;;;;26.50;99.90;;;;;;5061510;28;19998;-82
2022/06/23 09:27:22;;;;;;;;;;;26.40;99.90;;;;;;5047175;28;19928;-82
2022/06/23 09:30:00;;;;;;;;;;;27.50;99.90;;;;;;5022240;28;19932;-81
2022/06/23 09:32:34;;;;;;;;;;;27.30;99.90;;;;;;5066654;28;20759;-81
2022/06/23 09:35:20;;;;;;;;;;;26.70;99.90;;;;;;5043038;28;19948;-81
2022/06/23 09:37:55;;;;;;;;;;;26.90;99.90;;;;;;5065493;28;20274;-83
2022/06/23 09:40:33;;;;;;;;;;;27.20;99.60;;;;;;5061213;28;19967;-83
2022/06/23 09:43:19;;;;;;;;;;;27.50;99.90;;;;;;5045635;28;19928;-82
2022/06/23 09:45:52;;;;;;;;;;;27.80;98.50;;;;;;5041753;28;19939;-82
2022/06/23 09:48:31;;;;;;;;;;;27.40;99.90;;;;;;5039466;28;20756;-80
2022/06/23 09:51:05;;;;;;;;;;;27.50;99.90;;;;;;5021887;28;20027;-82
2022/06/23 09:53:39;;;;;;;;;;;27.40;99.10;;;;;;5057639;28;20509;-83
2022/06/23 09:56:05;;;;;;;;;;;27.80;99.90;;;;;;5037757;28;19974;-81
2022/06/23 09:58:51;;;;;;;;;;;28.50;99.90;;;;;;5063090;28;19928;-80
2022/06/23 10:01:34;;;;;;;;;;;28.70;99.30;;;;;;5043680;28;19928;-82
2022/06/23 10:04:02;;;;;;;;;;;27.60;98.30;;;;;;5044624;28;19982;-81
2022/06/23 10:06:42;;;;;;;;;;;28.10;99.90;;;;;;5065073;28;19928;-82
2022/06/23 10:09:27;;;;;;;;;;;29.00;99.90;;;;;;5028314;28;19963;-81
2022/06/23 10:12:03;;;;;;;;;;;28.70;96.90;;;;;;5038371;28;19932;-82
2022/06/23 10:14:49;;;;;;;;;;;28.60;99.50;;;;;;5040166;28;19979;-81
2022/06/23 10:17:22;;;;;;;;;;;28.50;98.40;;;;;;5016128;28;19928;-81
2022/06/23 10:19:48;;;;;;;;;;;28.50;95.40;;;;;;5038276;28;19928;-82
2022/06/23 10:22:16;;;;;;;;;;;28.80;96.90;;;;;;5044984;28;19934;-82
2022/06/23 10:24:49;;;;;;;;;;;28.50;94.40;;;;;;5030182;28;19935;-82
2022/06/23 10:27:21;;;;;;;;;;;28.40;95.40;;;;;;5060247;28;21869;-83
2022/06/23 10:30:06;;;;;;;;;;;28.90;94.80;;;;;;5057108;28;20364;-82
2022/06/23 10:32:32;;;;;;;;;;;29.10;95.00;;;;;;5044216;28;19985;-82
2022/06/23 10:35:16;;;;;;;;;;;29.70;93.70;;;;;;5061133;28;19936;-82
2022/06/23 10:38:01;;;;;;;;;;;29.20;96.20;;;;;;5046152;28;19928;-82
2022/06/23 10:40:29;;;;;;;;;;;28.60;93.20;;;;;;5066041;28;19928;-83
2022/06/23 10:43:01;;;;;;;;;;;29.90;94.50;;;;;;5033662;28;19928;-80
2022/06/23 10:45:46;;;;;;;;;;;29.70;95.00;;;;;;5046681;28;19932;-82
2022/06/23 10:48:28;;;;;;;;;;;29.80;93.20;;;;;;5040377;28;20774;-82
2022/06/23 10:51:12;;;;;;;;;;;30.60;94.40;;;;;;5046655;28;19935;-80
2022/06/23 10:53:47;;;;;;;;;;;30.80;90.40;;;;;;5043864;28;20396;-79
2022/06/23 10:56:16;;;;;;;;;;;30.90;90.00;;;;;;5046177;28;19979;-82
2022/06/23 10:58:45;;;;;;;;;;;30.10;81.90;;;;;;5062376;28;19934;-83
2022/06/23 11:01:30;;;;;;;;;;;30.90;90.00;;;;;;5041889;28;19975;-80
2022/06/23 11:03:55;;;;;;;;;;;30.00;81.90;;;;;;5062169;28;20835;-82
2022/06/23 11:06:31;;;;;;;;;;;30.10;83.20;;;;;;5063228;28;19928;-83
2022/06/23 11:09:16;;;;;;;;;;;30.60;90.40;;;;;;5061313;28;20454;-82
2022/06/23 11:11:48;;;;;;;;;;;30.50;87.40;;;;;;5038391;28;20285;-81
2022/06/23 11:14:13;;;;;;;;;;;30.30;88.20;;;;;;5063429;28;19924;-81
2022/06/23 11:16:58;;;;;;;;;;;30.90;83.70;;;;;;5042243;28;19943;-82
2022/06/23 11:19:33;;;;;;;;;;;31.30;84.10;;;;;;5060381;28;19928;-79
2022/06/23 11:22:04;;;;;;;;;;;30.90;82.10;;;;;;5038256;28;19936;-81
2022/06/23 11:24:30;;;;;;;;;;;30.50;77.70;;;;;;5063278;28;20014;-82
2022/06/23 11:27:05;;;;;;;;;;;30.70;79.50;;;;;;5060485;28;20025;-81
2022/06/23 11:29:37;;;;;;;;;;;31.20;83.60;;;;;;5042452;28;19936;-80
2022/06/23 11:32:05;;;;;;;;;;;31.30;78.30;;;;;;5042806;28;19928;-82
2022/06/23 11:34:31;;;;;;;;;;;30.70;79.70;;;;;;5040483;28;19928;-82
2022/06/23 11:37:15;;;;;;;;;;;31.00;78.10;;;;;;5041153;28;19980;-81
2022/06/23 11:39:51;;;;;;;;;;;30.60;78.70;;;;;;5060243;28;20365;-83
2022/06/23 11:42:25;;;;;;;;;;;30.40;79.30;;;;;;5038716;28;19940;-83
2022/06/23 11:44:57;;;;;;;;;;;31.00;78.80;;;;;;5042218;28;20643;-82
2022/06/23 11:47:26;;;;;;;;;;;30.70;74.40;;;;;;5038303;28;20329;-81
2022/06/23 11:49:59;;;;;;;;;;;30.70;74.00;;;;;;5059000;28;19927;-81
2022/06/23 11:52:31;;;;;;;;;;;31.00;76.40;;;;;;5041368;28;19928;-81
2022/06/23 11:55:06;;;;;;;;;;;30.50;78.40;;;;;;5065309;28;19963;-82
2022/06/23 11:57:41;;;;;;;;;;;30.90;74.30;;;;;;5036821;28;19928;-79
2022/06/23 12:00:29;;;;;;;;;;;31.20;77.40;;;;;;5041285;28;19932;-79
2022/06/23 12:03:14;;;;;;;;;;;30.90;74.10;;;;;;5039744;28;20052;-82
2022/06/23 12:05:46;;;;;;;;;;;31.40;74.10;;;;;;5046892;28;19935;-81
2022/06/23 12:08:11;;;;;;;;;;;31.30;72.40;;;;;;5038528;28;20301;-81
2022/06/23 12:10:37;;;;;;;;;;;31.60;71.80;;;;;;5021667;28;19986;-82
2022/06/23 12:13:03;;;;;;;;;;;31.70;76.00;;;;;;5039794;28;20373;-82
2022/06/23 12:15:34;;;;;;;;;;;32.10;77.40;;;;;;5064685;28;19932;-80
2022/06/23 12:18:08;;;;;;;;;;;31.50;72.30;;;;;;5047693;28;21143;-82
2022/06/23 12:20:46;;;;;;;;;;;32.10;74.70;;;;;;5060079;28;19990;-82
2022/06/23 12:23:12;;;;;;;;;;;31.30;72.40;;;;;;5034786;28;19932;-84
2022/06/23 12:25:41;;;;;;;;;;;31.50;71.90;;;;;;5032490;28;20853;-81
2022/06/23 12:28:18;;;;;;;;;;;31.70;73.50;;;;;;5040353;28;19978;-81
2022/06/23 12:31:04;;;;;;;;;;;31.40;67.10;;;;;;5062053;28;19972;-81
2022/06/23 12:33:30;;;;;;;;;;;31.60;71.30;;;;;;5040155;28;19935;-82
2022/06/23 12:36:05;;;;;;;;;;;31.90;69.50;;;;;;5059179;28;19927;-79
2022/06/23 12:38:51;;;;;;;;;;;31.60;68.10;;;;;;5027802;28;19929;-81
2022/06/23 12:41:21;;;;;;;;;;;31.50;69.20;;;;;;5041500;28;19928;-82
2022/06/23 12:43:58;;;;;;;;;;;31.60;69.10;;;;;;5057922;28;19932;-81
2022/06/23 12:46:27;;;;;;;;;;;31.60;68.40;;;;;;5062774;28;19928;-81
2022/06/23 12:49:07;;;;;;;;;;;31.90;68.90;;;;;;5056845;28;20305;-81
2022/06/23 12:51:43;;;;;;;;;;;32.20;69.80;;;;;;5041220;28;20390;-81
2022/06/23 12:54:21;;;;;;;;;;;31.70;70.40;;;;;;5039018;28;19998;-81
2022/06/23 12:57:06;;;;;;;;;;;32.10;68.70;;;;;;5022773;28;19933;-81
2022/06/23 12:59:50;;;;;;;;;;;32.10;69.60;;;;;;5032238;28;19939;-80
2022/06/23 13:02:29;;;;;;;;;;;32.50;71.60;;;;;;5042492;28;19935;-81
2022/06/23 13:05:01;;;;;;;;;;;32.50;69.10;;;;;;5063112;28;19966;-82
2022/06/23 13:07:30;;;;;;;;;;;32.10;68.00;;;;;;5035936;28;20039;-81
2022/06/23 13:09:56;;;;;;;;;;;31.60;65.00;;;;;;5054982;28;19932;-80
2022/06/23 13:12:22;;;;;;;;;;;32.00;67.90;;;;;;5039346;28;19940;-80
2022/06/23 13:14:47;;;;;;;;;;;32.20;68.40;;;;;;5034251;28;19929;-79
2022/06/23 13:17:21;;;;;;;;;;;32.50;70.10;;;;;;5018853;28;20050;-81
2022/06/23 13:20:19;;;;;;;;;;;32.50;70.60;;;;;;5019771;28;19924;-78
2022/06/23 13:22:46;;;;;;;;;;;32.60;67.00;;;;;;4972184;28;19986;-80
2022/06/23 13:25:13;;;;;;;;;;;32.90;66.80;;;;;;5022146;28;20025;-79
2022/06/23 13:27:44;;;;;;;;;;;32.80;68.10;;;;;;5017213;28;19934;-78
2022/06/23 13:30:14;;;;;;;;;;;32.80;64.10;;;;;;5039159;28;19944;-80
2022/06/23 13:32:43;;;;;;;;;;;31.80;64.30;;;;;;5013139;28;20045;-81
2022/06/23 13:35:09;;;;;;;;;;;32.30;61.90;;;;;;5027077;28;19964;-82
2022/06/23 13:37:34;;;;;;;;;;;33.10;67.00;;;;;;5010422;28;20031;-85
2022/06/23 13:40:19;;;;;;;;;;;33.10;66.30;;;;;;5006493;28;19928;-84
2022/06/23 13:42:51;;;;;;;;;;;33.00;69.20;;;;;;5025922;28;20334;-81
2022/06/23 13:45:32;;;;;;;;;;;32.10;65.10;;;;;;5007950;28;19924;-80
2022/06/23 13:48:02;;;;;;;;;;;32.30;67.40;;;;;;5025860;28;19998;-81
2022/06/23 13:50:47;;;;;;;;;;;32.20;66.50;;;;;;5010488;28;19936;-82
2022/06/23 13:53:23;;;;;;;;;;;32.40;67.70;;;;;;5028320;28;19936;-82
2022/06/23 13:56:07;;;;;;;;;;;32.70;63.40;;;;;;5013038;28;20078;-79
2022/06/23 13:59:02;;;;;;;;;;;32.40;68.70;;;;;;5014689;28;20289;-81
2022/06/23 14:01:47;;;;;;;;;;;33.30;66.50;;;;;;5033013;28;19932;-81
2022/06/23 14:04:20;;;;;;;;;;;33.50;65.40;;;;;;5059655;28;19934;-82
2022/06/23 14:06:53;;;;;;;;;;;32.50;61.60;;;;;;5022412;28;20170;-79
2022/06/23 14:09:25;;;;;;;;;;;32.70;65.60;;;;;;5033776;28;19928;-81
2022/06/23 14:12:05;;;;;;;;;;;32.50;65.80;;;;;;5042756;28;19978;-81
2022/06/23 14:14:45;;;;;;;;;;;32.50;65.40;;;;;;5043387;28;19932;-80
2022/06/23 14:17:11;;;;;;;;;;;32.70;68.60;;;;;;5047272;28;19928;-81
2022/06/23 14:19:37;;;;;;;;;;;33.10;67.50;;;;;;5022364;28;19932;-82
2022/06/23 14:22:06;;;;;;;;;;;33.60;66.80;;;;;;5028658;28;20058;-81
2022/06/23 14:24:38;;;;;;;;;;;33.50;65.30;;;;;;5047780;28;20630;-81
2022/06/23 14:27:15;;;;;;;;;;;33.20;63.00;;;;;;5044276;28;20733;-81
2022/06/23 14:30:04;;;;;;;;;;;33.10;65.50;;;;;;5027182;28;19925;-80
2022/06/23 14:32:47;;;;;;;;;;;32.60;64.30;;;;;;4974452;28;19940;-82
2022/06/23 14:35:18;;;;;;;;;;;32.40;63.80;;;;;;5045459;28;19932;-81
2022/06/23 14:38:19;;;;;;;;;;;32.80;69.30;;;;;;5008095;28;19943;-82
2022/06/23 14:40:45;;;;;;;;;;;32.90;67.30;;;;;;4989095;28;19929;-81
2022/06/23 14:43:11;;;;;;;;;;;33.40;65.70;;;;;;5032983;28;20274;-80
2022/06/23 14:45:36;;;;;;;;;;;33.10;64.50;;;;;;5014387;28;20413;-80
2022/06/23 14:48:03;;;;;;;;;;;32.80;65.50;;;;;;5012410;28;19928;-81
2022/06/23 14:50:53;;;;;;;;;;;31.90;64.50;;;;;;5048605;28;19932;-82
2022/06/23 14:53:21;;;;;;;;;;;32.00;66.10;;;;;;5028560;28;19935;-82
2022/06/23 14:56:06;;;;;;;;;;;32.10;66.20;;;;;;5030428;28;19971;-81
2022/06/23 14:58:50;;;;;;;;;;;32.20;67.00;;;;;;5021272;28;19928;-79
2022/06/23 15:01:16;;;;;;;;;;;32.10;65.50;;;;;;5047438;28;19936;-81